Terminal Aerodrome Forecast
Issued by NWS Omaha/Valley, NE

Home | Current Version | Previous Version | Graphics & Text | Print | Product List | Glossary On
Versions: 1 2 3 4 5 6 7 8 9 10 11 12 13 14 15 16 17 18 19 20 21 22 23 24 25 26 27 28
000
FTUS43 KOAX 201401 AAA
TAFOFK
TAF AMD
KOFK 201401Z 2014/2112 12010KT P6SM -SHRA SCT045 BKN100
      TEMPO 2014/2016 4SM TSRA BKN045CB
     FM201600 14011KT P6SM SCT040 BKN120
     FM201900 16016G24KT P6SM SCT050
     FM210100 17012G20KT P6SM SCT050 BKN250 PROB30 2106/2110 5SM
      -TSRA BKN050CB=

USA.gov is the U.S. government's official web portal to all federal, state and local government web resources and services.